Time;durP1;ratioP1;P1;durP2;ratioP2;P2;SDS_P1;SDS_P2;PMS_P1;PMS_P2;Temp;Humidity;BMP_temperature;BMP_pressure;BME280_temperature;BME280_humidity;BME280_pressure;Samples;Min_cycle;Max_cycle;Signal;HPM_P1;HPM_P2
2021/09/14 00:02:22;;;;;;;5.07;2.15;;;15.10;99.90;;;;;;5036309;28;20357;-62
2021/09/14 00:04:48;;;;;;;5.45;2.17;;;15.10;99.90;;;;;;5039807;28;20075;-63
2021/09/14 00:07:13;;;;;;;10.15;2.30;;;15.00;99.90;;;;;;5036877;28;20120;-63
2021/09/14 00:09:39;;;;;;;7.03;1.98;;;15.00;99.90;;;;;;5038248;28;20036;-63
2021/09/14 00:12:05;;;;;;;9.57;2.03;;;15.00;99.90;;;;;;5038108;28;20121;-62
2021/09/14 00:14:31;;;;;;;6.60;2.55;;;15.00;99.90;;;;;;5037296;28;20037;-62
2021/09/14 00:16:57;;;;;;;5.75;2.45;;;14.90;99.90;;;;;;5021350;28;20029;-63
2021/09/14 00:19:23;;;;;;;5.38;1.83;;;14.90;99.90;;;;;;5036350;28;20060;-62
2021/09/14 00:21:48;;;;;;;6.78;2.10;;;14.90;99.90;;;;;;5039512;28;20041;-63
2021/09/14 00:24:14;;;;;;;4.93;1.65;;;14.80;99.90;;;;;;5037056;28;20041;-63
2021/09/14 00:26:39;;;;;;;4.15;1.73;;;14.80;99.90;;;;;;5038480;28;20041;-62
2021/09/14 00:29:05;;;;;;;6.55;1.90;;;14.80;99.90;;;;;;5037624;28;20041;-62
2021/09/14 00:31:32;;;;;;;7.30;2.70;;;14.80;99.90;;;;;;5036864;28;20033;-65
2021/09/14 00:33:58;;;;;;;6.88;1.90;;;14.80;99.90;;;;;;5021577;28;20078;-63
2021/09/14 00:36:23;;;;;;;5.22;2.20;;;14.80;99.90;;;;;;5018233;28;20405;-63
2021/09/14 00:38:49;;;;;;;4.15;2.00;;;14.80;99.90;;;;;;5038213;28;20521;-64
2021/09/14 00:41:15;;;;;;;5.68;2.53;;;14.70;99.90;;;;;;5042406;28;20026;-63
2021/09/14 00:43:40;;;;;;;4.82;1.88;;;14.70;99.90;;;;;;5020584;28;20042;-63
2021/09/14 00:46:06;;;;;;;4.95;2.03;;;14.70;99.90;;;;;;5037098;28;20041;-63
2021/09/14 00:48:31;;;;;;;6.80;1.85;;;14.70;99.90;;;;;;5036358;28;20106;-62
2021/09/14 00:50:57;;;;;;;5.95;2.17;;;14.70;99.90;;;;;;5036521;28;20037;-63
2021/09/14 00:53:26;;;;;;;5.57;2.10;;;14.70;99.90;;;;;;5040352;28;20025;-62
2021/09/14 00:55:52;;;;;;;5.30;2.13;;;14.60;99.90;;;;;;5021752;28;20402;-63
2021/09/14 00:58:17;;;;;;;5.80;2.45;;;14.60;99.90;;;;;;5046320;28;20032;-63
2021/09/14 01:00:43;;;;;;;4.03;1.65;;;14.60;99.90;;;;;;5024169;28;20499;-63
2021/09/14 01:03:09;;;;;;;6.32;2.05;;;14.60;99.90;;;;;;5040346;28;20041;-62
2021/09/14 01:05:35;;;;;;;8.60;2.50;;;14.60;99.90;;;;;;5041281;28;20036;-64
2021/09/14 01:08:01;;;;;;;6.78;2.30;;;14.60;99.90;;;;;;5041777;28;20222;-62
2021/09/14 01:10:28;;;;;;;6.03;2.42;;;14.60;99.90;;;;;;5039470;28;20512;-63
2021/09/14 01:12:53;;;;;;;6.72;2.05;;;14.60;99.90;;;;;;5042700;28;20552;-63
2021/09/14 01:15:19;;;;;;;6.13;2.75;;;14.60;99.90;;;;;;5038719;28;20125;-63
2021/09/14 01:17:44;;;;;;;5.70;2.50;;;14.60;99.90;;;;;;5042516;28;20033;-62
2021/09/14 01:20:10;;;;;;;5.65;2.50;;;14.60;99.90;;;;;;5040049;28;20131;-63
2021/09/14 01:22:36;;;;;;;6.10;2.55;;;14.70;99.90;;;;;;5041112;28;20083;-62
2021/09/14 01:25:15;;;;;;;6.07;3.17;;;14.70;99.90;;;;;;5041492;28;20032;-63
2021/09/14 01:27:41;;;;;;;5.75;2.38;;;14.80;99.90;;;;;;5041099;28;20031;-62
2021/09/14 01:30:22;;;;;;;7.50;2.40;;;14.90;99.90;;;;;;5040249;28;20040;-62
2021/09/14 01:32:50;;;;;;;5.95;2.30;;;14.90;99.90;;;;;;5039092;28;20037;-62
2021/09/14 01:35:21;;;;;;;7.32;2.50;;;14.90;99.90;;;;;;5042184;28;20167;-62
2021/09/14 01:37:47;;;;;;;7.45;2.45;;;15.00;99.90;;;;;;5038785;28;20045;-63
2021/09/14 01:40:14;;;;;;;7.38;2.67;;;15.00;99.90;;;;;;5024062;28;20037;-63
2021/09/14 01:42:40;;;;;;;6.38;2.85;;;15.00;99.90;;;;;;5041226;28;20037;-64
2021/09/14 01:45:07;;;;;;;7.97;2.50;;;15.00;99.90;;;;;;5040238;28;20509;-62
2021/09/14 01:47:33;;;;;;;9.63;2.58;;;15.00;99.90;;;;;;5022244;28;20049;-62
2021/09/14 01:49:59;;;;;;;6.55;3.08;;;15.00;99.90;;;;;;5040640;28;20060;-63
2021/09/14 01:52:27;;;;;;;8.38;2.75;;;15.00;99.90;;;;;;5039281;28;20465;-62
2021/09/14 01:54:52;;;;;;;6.07;3.22;;;14.90;99.90;;;;;;5041287;28;20033;-63
2021/09/14 01:57:25;;;;;;;7.00;2.90;;;14.90;99.90;;;;;;5025600;28;20363;-64
2021/09/14 01:59:53;;;;;;;6.10;2.72;;;14.90;99.90;;;;;;5038017;28;20064;-63
2021/09/14 02:05:35;;;;;;;6.50;3.08;;;14.80;99.90;;;;;;5038713;28;20501;-62
2021/09/14 02:08:39;;;;;;;6.38;2.85;;;14.80;99.90;;;;;;5039480;28;20029;-63
2021/09/14 02:38:30;;;;;;;5.38;2.75;;;14.80;99.90;;;;;;5037896;28;20190;-63
2021/09/14 02:59:37;;;;;;;6.10;3.20;;;14.70;99.90;;;;;;5041767;28;20111;-63
2021/09/14 03:02:04;;;;;;;8.88;3.40;;;14.60;99.90;;;;;;5020527;28;20086;-63
2021/09/14 03:04:30;;;;;;;8.48;3.53;;;14.60;99.90;;;;;;5039962;28;20045;-60
2021/09/14 03:06:56;;;;;;;9.77;3.60;;;14.60;99.90;;;;;;5039074;28;20051;-63
2021/09/14 03:09:21;;;;;;;8.60;3.20;;;14.50;99.90;;;;;;5038056;28;20481;-61
2021/09/14 03:11:47;;;;;;;4.07;2.38;;;14.50;99.90;;;;;;5039874;28;20037;-66
2021/09/14 03:14:13;;;;;;;7.05;3.40;;;14.40;99.90;;;;;;5036807;28;20037;-64
2021/09/14 03:16:38;;;;;;;7.35;3.58;;;14.30;99.90;;;;;;5045183;28;20091;-61
2021/09/14 03:19:05;;;;;;;11.95;3.58;;;14.30;99.90;;;;;;5041815;28;20044;-61
2021/09/14 03:21:32;;;;;;;6.63;3.33;;;14.20;99.90;;;;;;5024018;28;20072;-63
2021/09/14 03:23:57;;;;;;;11.50;3.47;;;14.30;99.90;;;;;;5039136;28;20140;-62
2021/09/14 03:26:23;;;;;;;9.15;3.78;;;14.30;99.90;;;;;;5037530;28;20121;-62
2021/09/14 03:28:49;;;;;;;6.13;3.00;;;14.20;99.90;;;;;;5022030;28;20415;-60
2021/09/14 03:31:16;;;;;;;7.38;3.50;;;14.20;99.90;;;;;;5035886;28;20058;-61
2021/09/14 03:33:43;;;;;;;6.47;3.17;;;14.20;99.90;;;;;;5022809;28;20021;-61
2021/09/14 03:36:09;;;;;;;5.97;3.17;;;14.10;99.90;;;;;;5039863;28;20044;-60
2021/09/14 03:38:34;;;;;;;7.43;2.92;;;14.10;99.90;;;;;;5037436;28;20037;-60
2021/09/14 03:41:00;;;;;;;7.35;4.07;;;14.10;99.90;;;;;;5041921;28;20029;-61
2021/09/14 03:43:26;;;;;;;6.30;2.95;;;14.00;99.90;;;;;;5038182;28;20112;-61
2021/09/14 03:45:51;;;;;;;8.50;3.00;;;14.00;99.90;;;;;;5038962;28;20377;-63
2021/09/14 03:48:17;;;;;;;14.73;3.60;;;14.00;99.90;;;;;;5036653;28;20051;-60
2021/09/14 03:50:43;;;;;;;12.98;4.32;;;13.90;99.90;;;;;;5039558;28;20059;-61
2021/09/14 03:53:09;;;;;;;8.93;3.53;;;14.00;99.90;;;;;;5036457;28;20040;-61
2021/09/14 03:55:35;;;;;;;8.63;3.80;;;13.90;99.90;;;;;;5039135;28;20032;-60
2021/09/14 03:58:00;;;;;;;6.25;3.30;;;13.90;99.90;;;;;;5040842;28;20032;-62
2021/09/14 04:00:26;;;;;;;12.15;3.88;;;13.90;99.90;;;;;;5037801;28;20034;-61
2021/09/14 04:02:57;;;;;;;8.82;3.30;;;13.90;99.90;;;;;;5018030;28;20409;-61
2021/09/14 04:10:36;;;;;;;7.60;3.35;;;13.80;99.90;;;;;;5036463;28;20033;-61
2021/09/14 04:13:02;;;;;;;8.57;3.90;;;13.80;99.90;;;;;;5039379;28;20120;-62
2021/09/14 04:15:27;;;;;;;6.22;3.58;;;13.80;99.90;;;;;;5021874;28;20141;-62
2021/09/14 04:17:53;;;;;;;10.23;3.85;;;13.80;99.90;;;;;;5038446;28;20029;-61
2021/09/14 04:20:18;;;;;;;11.52;4.00;;;13.70;99.90;;;;;;5036685;28;20042;-61
2021/09/14 04:22:44;;;;;;;8.50;3.90;;;13.80;99.90;;;;;;5038671;28;20037;-64
2021/09/14 04:25:10;;;;;;;7.38;3.13;;;13.80;99.90;;;;;;5036633;28;20048;-62
2021/09/14 04:27:36;;;;;;;8.20;3.60;;;13.80;99.90;;;;;;5039332;28;20037;-62
2021/09/14 04:30:02;;;;;;;10.63;3.35;;;13.90;99.90;;;;;;5040414;28;20493;-61
2021/09/14 04:32:28;;;;;;;6.60;3.60;;;13.90;99.90;;;;;;5041500;28;20509;-61
2021/09/14 04:34:53;;;;;;;8.80;3.70;;;13.90;99.90;;;;;;5042123;28;20044;-60
2021/09/14 04:37:19;;;;;;;8.75;3.78;;;13.90;99.90;;;;;;5021343;28;20464;-60
2021/09/14 04:39:44;;;;;;;13.25;3.63;;;13.90;99.90;;;;;;5044533;28;20025;-60
2021/09/14 04:42:10;;;;;;;9.82;3.42;;;13.90;99.90;;;;;;5040149;28;20041;-61
2021/09/14 04:44:35;;;;;;;6.72;3.17;;;13.90;99.90;;;;;;5039809;28;20034;-60
2021/09/14 04:47:01;;;;;;;7.55;3.38;;;13.90;99.90;;;;;;5042312;28;20029;-62
2021/09/14 04:49:26;;;;;;;11.63;4.28;;;13.90;99.90;;;;;;5025638;28;20045;-60
2021/09/14 04:51:52;;;;;;;8.05;3.10;;;13.80;99.90;;;;;;5041112;28;20033;-61
2021/09/14 04:54:18;;;;;;;7.60;3.33;;;13.90;99.90;;;;;;5041040;28;20041;-60
2021/09/14 04:56:43;;;;;;;9.82;3.95;;;13.80;99.90;;;;;;5040984;28;20045;-63
2021/09/14 04:59:09;;;;;;;7.22;3.65;;;13.80;99.90;;;;;;5051106;28;21301;-62
2021/09/14 05:01:34;;;;;;;8.65;4.03;;;13.80;99.90;;;;;;5043399;28;20532;-61
2021/09/14 05:04:00;;;;;;;8.48;4.05;;;13.80;99.90;;;;;;5030053;28;20156;-61
2021/09/14 05:06:26;;;;;;;9.23;3.70;;;13.80;99.90;;;;;;5047802;28;20032;-62
2021/09/14 05:08:51;;;;;;;8.15;3.92;;;13.80;99.90;;;;;;5050349;28;20435;-61
2021/09/14 05:11:17;;;;;;;10.18;4.20;;;13.70;99.90;;;;;;5031665;28;20064;-60
2021/09/14 05:13:42;;;;;;;7.25;3.67;;;13.70;99.90;;;;;;5049448;28;20028;-61
2021/09/14 05:16:08;;;;;;;9.68;3.80;;;13.70;99.90;;;;;;5049739;28;20142;-61
2021/09/14 05:18:33;;;;;;;9.45;4.20;;;13.70;99.90;;;;;;5031232;28;20057;-62
2021/09/14 05:20:59;;;;;;;12.90;3.85;;;13.70;99.90;;;;;;5048632;28;20039;-62
2021/09/14 05:23:32;;;;;;;11.57;4.68;;;13.80;99.90;;;;;;5031957;28;20040;-61
2021/09/14 05:26:02;;;;;;;8.00;3.88;;;13.70;99.90;;;;;;5050059;28;20036;-61
2021/09/14 05:28:28;;;;;;;13.20;4.97;;;13.70;99.90;;;;;;5049229;28;20063;-64
2021/09/14 05:30:54;;;;;;;11.43;4.32;;;13.80;99.90;;;;;;5047964;28;20025;-65
2021/09/14 05:33:19;;;;;;;8.90;4.40;;;13.80;99.90;;;;;;5050697;28;20052;-62
2021/09/14 05:35:51;;;;;;;8.77;4.40;;;13.90;99.90;;;;;;5047646;28;20037;-61
2021/09/14 05:38:19;;;;;;;9.13;4.47;;;13.80;99.90;;;;;;5046952;28;20056;-63
2021/09/14 05:40:46;;;;;;;11.32;4.65;;;13.80;99.90;;;;;;5048961;28;20108;-61
2021/09/14 05:43:11;;;;;;;9.68;4.00;;;13.90;99.90;;;;;;5031529;28;20044;-63
2021/09/14 05:45:37;;;;;;;11.32;4.25;;;14.00;99.90;;;;;;5048700;28;20385;-62
2021/09/14 05:48:03;;;;;;;9.25;4.10;;;14.00;99.90;;;;;;5050079;28;20439;-61
2021/09/14 05:50:29;;;;;;;8.07;3.60;;;14.00;99.90;;;;;;5048777;28;20028;-64
2021/09/14 05:52:54;;;;;;;8.55;4.35;;;14.10;99.90;;;;;;5048546;28;20044;-61
2021/09/14 05:55:20;;;;;;;11.95;5.28;;;14.20;99.90;;;;;;5049625;28;20051;-62
2021/09/14 05:57:46;;;;;;;14.07;4.63;;;14.30;99.90;;;;;;5048637;28;20043;-62
2021/09/14 06:00:13;;;;;;;9.57;4.88;;;14.50;99.90;;;;;;5048656;28;20508;-61
2021/09/14 06:02:38;;;;;;;9.48;4.47;;;14.60;99.90;;;;;;5029570;28;20043;-65
2021/09/14 06:05:05;;;;;;;11.70;4.82;;;14.70;99.90;;;;;;5049560;28;20025;-61
2021/09/14 06:07:31;;;;;;;12.90;5.85;;;14.70;99.90;;;;;;5048237;28;20121;-61
2021/09/14 06:09:56;;;;;;;19.90;4.47;;;14.80;99.90;;;;;;5048095;28;20468;-60
2021/09/14 06:12:23;;;;;;;13.15;5.15;;;14.80;99.90;;;;;;5047577;28;20059;-60
2021/09/14 06:14:48;;;;;;;13.00;4.78;;;14.80;99.90;;;;;;5031659;28;20401;-61
2021/09/14 06:17:14;;;;;;;10.63;3.97;;;14.80;99.90;;;;;;5047734;28;20044;-61
2021/09/14 06:19:39;;;;;;;12.25;4.97;;;14.80;99.90;;;;;;5049015;28;20044;-62
2021/09/14 06:22:05;;;;;;;12.13;4.70;;;14.80;99.90;;;;;;5050238;28;20064;-63
2021/09/14 06:24:31;;;;;;;11.75;4.88;;;14.70;99.90;;;;;;5048595;28;20040;-62
2021/09/14 06:26:56;;;;;;;12.23;5.70;;;14.70;99.90;;;;;;5047530;28;20086;-60
2021/09/14 06:29:22;;;;;;;12.65;4.88;;;14.70;99.90;;;;;;5049297;28;20037;-60
2021/09/14 06:31:48;;;;;;;10.30;4.93;;;14.70;99.90;;;;;;5047644;28;20081;-61
2021/09/14 06:34:13;;;;;;;10.93;4.78;;;14.70;99.90;;;;;;5046863;28;20032;-61
2021/09/14 06:36:39;;;;;;;12.60;4.95;;;14.70;99.90;;;;;;5028373;28;20037;-62
2021/09/14 06:39:05;;;;;;;10.85;4.93;;;14.60;99.90;;;;;;5044335;28;20033;-62
2021/09/14 06:41:31;;;;;;;11.60;4.88;;;14.70;99.90;;;;;;5047266;28;20059;-63
2021/09/14 06:43:58;;;;;;;10.18;4.93;;;14.60;99.90;;;;;;5045611;28;20029;-63
2021/09/14 06:46:24;;;;;;;10.48;5.28;;;14.70;99.90;;;;;;5055579;28;20112;-63
2021/09/14 06:48:49;;;;;;;12.75;4.35;;;14.70;99.90;;;;;;5061815;28;20013;-64
2021/09/14 06:51:15;;;;;;;13.00;4.80;;;14.80;99.90;;;;;;5063914;28;20110;-61
2021/09/14 06:53:40;;;;;;;11.77;5.10;;;14.80;99.90;;;;;;5048334;28;20061;-60
2021/09/14 06:56:09;;;;;;;10.77;4.50;;;14.80;99.90;;;;;;5047263;28;20083;-61
2021/09/14 06:58:35;;;;;;;13.27;4.95;;;14.80;99.90;;;;;;5047892;28;20051;-61
2021/09/14 07:01:01;;;;;;;10.38;5.20;;;14.90;99.90;;;;;;5047634;28;20033;-61
2021/09/14 07:03:27;;;;;;;9.70;4.63;;;15.00;99.90;;;;;;5048064;28;20031;-60
2021/09/14 07:05:52;;;;;;;10.85;5.47;;;15.00;99.90;;;;;;5046920;28;20041;-61
2021/09/14 07:08:18;;;;;;;11.32;5.07;;;15.00;99.90;;;;;;5046916;28;20025;-62
2021/09/14 07:10:44;;;;;;;12.50;4.82;;;15.10;99.90;;;;;;5040020;28;20442;-63
2021/09/14 07:13:10;;;;;;;14.30;4.85;;;15.10;99.90;;;;;;5047464;28;20037;-61
2021/09/14 07:15:36;;;;;;;13.55;5.20;;;15.20;99.90;;;;;;5045965;28;20033;-61
2021/09/14 07:18:02;;;;;;;10.10;5.00;;;15.40;99.90;;;;;;5047594;28;20033;-63
2021/09/14 07:20:27;;;;;;;9.93;4.97;;;15.50;99.90;;;;;;5047015;28;20036;-61
2021/09/14 07:22:53;;;;;;;9.82;4.85;;;15.70;99.90;;;;;;5047638;28;20028;-60
2021/09/14 07:25:19;;;;;;;12.65;5.25;;;15.90;99.90;;;;;;5045166;28;20041;-60
2021/09/14 07:27:45;;;;;;;13.68;5.43;;;16.00;99.90;;;;;;5049037;28;20123;-61
2021/09/14 07:30:11;;;;;;;10.77;4.80;;;16.10;99.90;;;;;;5048562;28;20116;-62
2021/09/14 07:32:36;;;;;;;11.63;5.07;;;16.10;99.90;;;;;;5048886;28;20060;-60
2021/09/14 07:35:06;;;;;;;12.20;5.75;;;16.20;99.90;;;;;;5047276;28;20029;-61
2021/09/14 07:37:32;;;;;;;12.65;5.75;;;16.30;99.90;;;;;;5047275;28;20026;-61
2021/09/14 07:39:57;;;;;;;10.75;4.75;;;16.40;99.90;;;;;;5045459;28;20043;-62
2021/09/14 07:42:23;;;;;;;11.75;5.72;;;16.50;99.90;;;;;;5046125;28;20547;-61
2021/09/14 07:44:50;;;;;;;13.77;5.20;;;16.50;99.90;;;;;;5047622;28;20033;-64
2021/09/14 07:47:16;;;;;;;11.38;5.20;;;16.50;99.90;;;;;;5046701;28;20419;-63
2021/09/14 07:49:41;;;;;;;8.35;4.65;;;16.60;99.90;;;;;;5045283;28;20392;-62
2021/09/14 07:52:07;;;;;;;11.73;5.15;;;16.70;99.90;;;;;;5045805;28;20033;-62
2021/09/14 07:54:33;;;;;;;11.10;5.65;;;16.70;99.90;;;;;;5047275;28;20443;-61
2021/09/14 07:56:58;;;;;;;9.50;4.93;;;16.80;99.90;;;;;;5046554;28;20614;-62
2021/09/14 07:59:24;;;;;;;11.48;5.30;;;16.90;99.90;;;;;;5046793;28;20041;-61
2021/09/14 08:01:49;;;;;;;9.32;4.55;;;16.90;99.90;;;;;;5047112;28;20067;-62
2021/09/14 08:04:15;;;;;;;14.88;6.00;;;17.00;99.90;;;;;;5049574;28;20031;-63
2021/09/14 08:06:41;;;;;;;14.52;5.20;;;17.10;99.90;;;;;;5049945;28;20427;-62
2021/09/14 08:09:06;;;;;;;13.27;5.78;;;17.20;99.90;;;;;;5048129;28;20071;-63
2021/09/14 08:11:32;;;;;;;12.75;5.32;;;17.30;99.90;;;;;;5050354;28;20094;-62
2021/09/14 08:13:57;;;;;;;10.18;5.03;;;17.40;99.90;;;;;;5048845;28;20035;-64
2021/09/14 08:16:23;;;;;;;11.07;5.57;;;17.50;99.90;;;;;;5048942;28;20104;-63
2021/09/14 08:18:49;;;;;;;11.85;5.50;;;17.60;99.90;;;;;;5051007;28;20033;-62
2021/09/14 08:21:14;;;;;;;11.27;5.68;;;17.80;99.90;;;;;;5032509;28;20041;-62
2021/09/14 08:23:40;;;;;;;11.25;5.55;;;17.90;99.90;;;;;;5049964;28;20036;-63
2021/09/14 08:26:05;;;;;;;12.07;5.72;;;17.80;99.90;;;;;;5050756;28;20035;-63
2021/09/14 08:28:31;;;;;;;12.50;5.35;;;17.90;99.90;;;;;;5033549;28;20116;-63
2021/09/14 08:30:57;;;;;;;16.45;5.63;;;17.90;99.90;;;;;;5049151;28;20104;-63
2021/09/14 08:33:22;;;;;;;10.15;5.57;;;17.90;99.90;;;;;;5050237;28;20029;-62
2021/09/14 08:35:48;;;;;;;16.10;5.65;;;18.00;99.90;;;;;;5049562;28;20039;-62
2021/09/14 08:38:13;;;;;;;10.68;5.13;;;18.10;99.90;;;;;;5028624;28;20082;-63
2021/09/14 08:40:42;;;;;;;9.10;5.00;;;18.30;99.90;;;;;;5050463;28;20029;-62
2021/09/14 08:43:12;;;;;;;12.45;5.90;;;18.40;99.90;;;;;;5050448;28;20493;-62
2021/09/14 08:45:38;;;;;;;11.73;5.70;;;18.50;99.90;;;;;;5030598;28;20032;-62
2021/09/14 08:48:04;;;;;;;10.05;5.10;;;18.50;99.90;;;;;;5049411;28;20025;-62
2021/09/14 08:50:30;;;;;;;11.25;5.28;;;18.50;99.90;;;;;;5047274;28;20029;-62
2021/09/14 08:52:56;;;;;;;10.52;5.28;;;18.60;99.90;;;;;;5032284;28;20682;-62
2021/09/14 08:55:22;;;;;;;15.75;5.70;;;18.50;99.90;;;;;;5047971;28;20044;-63
2021/09/14 08:57:54;;;;;;;10.65;5.43;;;18.60;99.90;;;;;;5051530;28;20423;-62
2021/09/14 09:00:33;;;;;;;9.70;5.10;;;18.60;99.90;;;;;;5047664;28;20036;-62
2021/09/14 09:02:59;;;;;;;10.00;5.15;;;18.70;99.90;;;;;;5047985;28;20075;-62
2021/09/14 09:05:36;;;;;;;13.10;4.78;;;18.90;99.90;;;;;;5130398;22;20080;-70
2021/09/14 09:08:02;;;;;;;10.07;5.13;;;19.00;99.90;;;;;;5030076;28;20037;-70
2021/09/14 09:10:30;;;;;;;12.60;5.45;;;19.20;99.90;;;;;;5029397;28;20384;-70
2021/09/14 09:12:57;;;;;;;9.32;4.55;;;19.30;99.90;;;;;;5032654;28;20401;-70
2021/09/14 09:15:29;;;;;;;7.22;4.40;;;19.50;99.90;;;;;;5027784;28;20034;-70
2021/09/14 09:18:09;;;;;;;9.75;4.97;;;19.70;99.90;;;;;;5017065;28;20034;-70
2021/09/14 09:20:38;;;;;;;9.00;4.63;;;19.80;99.90;;;;;;5013883;28;20029;-70
2021/09/14 09:23:26;;;;;;;10.57;5.38;;;19.90;99.90;;;;;;5018949;28;20034;-69
2021/09/14 09:26:02;;;;;;;9.43;4.63;;;19.80;99.90;;;;;;5014097;28;20044;-69
2021/09/14 09:28:28;;;;;;;9.48;4.75;;;19.90;99.90;;;;;;5016967;28;20025;-71
2021/09/14 09:31:00;;;;;;;7.30;4.40;;;20.00;99.90;;;;;;5015507;28;20033;-70
2021/09/14 09:33:28;;;;;;;7.97;4.20;;;20.00;99.90;;;;;;5013378;28;20026;-69
2021/09/14 09:36:02;;;;;;;7.90;4.30;;;20.10;99.90;;;;;;5021736;28;20057;-69
2021/09/14 09:38:29;;;;;;;11.13;5.10;;;20.20;99.90;;;;;;5017055;28;20083;-69
2021/09/14 09:40:55;;;;;;;11.55;5.07;;;20.30;99.90;;;;;;5018341;28;20121;-69
2021/09/14 09:43:29;;;;;;;9.23;4.47;;;20.50;99.90;;;;;;5019343;28;20100;-69
2021/09/14 09:46:05;;;;;;;7.38;4.28;;;20.60;99.90;;;;;;5016591;28;20037;-68
2021/09/14 09:48:33;;;;;;;8.32;4.50;;;20.60;99.90;;;;;;5016090;28;20052;-70
2021/09/14 09:50:59;;;;;;;10.05;4.80;;;20.70;99.90;;;;;;5014368;28;20491;-71
2021/09/14 09:53:24;;;;;;;6.28;3.97;;;20.80;99.90;;;;;;5019287;28;20036;-70
2021/09/14 09:55:50;;;;;;;8.40;3.83;;;20.90;99.90;;;;;;5020534;28;20463;-69
2021/09/14 09:58:16;;;;;;;8.35;3.95;;;20.90;99.90;;;;;;5019919;28;20152;-72
2021/09/14 10:00:43;;;;;;;12.25;3.70;;;21.00;99.90;;;;;;5015564;28;20129;-72
2021/09/14 10:03:16;;;;;;;8.40;3.78;;;21.10;99.90;;;;;;5020909;28;20064;-72
2021/09/14 10:05:43;;;;;;;9.13;3.65;;;21.30;99.90;;;;;;5018264;28;20037;-70
2021/09/14 10:08:12;;;;;;;9.00;3.97;;;21.30;99.90;;;;;;5015796;28;20038;-71
2021/09/14 10:10:39;;;;;;;8.75;3.72;;;21.30;99.90;;;;;;5017546;28;20034;-71
2021/09/14 10:13:07;;;;;;;8.40;3.72;;;21.30;99.90;;;;;;5018300;28;20042;-70
2021/09/14 10:15:43;;;;;;;7.80;3.78;;;21.30;99.90;;;;;;5014793;28;20041;-69
2021/09/14 10:18:10;;;;;;;8.45;3.60;;;21.40;99.90;;;;;;5014859;28;20034;-71
2021/09/14 10:20:45;;;;;;;7.78;3.85;;;21.50;99.90;;;;;;5021385;28;20393;-69
2021/09/14 10:23:22;;;;;;;9.10;3.85;;;21.60;99.90;;;;;;5010449;28;20032;-70
2021/09/14 10:25:51;;;;;;;12.68;4.05;;;21.60;99.90;;;;;;5009898;28;20112;-70
2021/09/14 10:28:19;;;;;;;6.23;3.67;;;21.60;99.90;;;;;;5012005;28;20041;-72
2021/09/14 10:30:46;;;;;;;18.63;3.55;;;21.70;99.90;;;;;;5016043;28;20296;-71
2021/09/14 10:33:26;;;;;;;6.88;3.65;;;21.80;99.90;;;;;;5014115;28;20037;-71
2021/09/14 10:35:52;;;;;;;7.13;3.67;;;21.80;99.90;;;;;;5011713;28;20666;-70
2021/09/14 10:38:19;;;;;;;9.13;3.72;;;21.80;99.90;;;;;;5016667;28;20481;-69
2021/09/14 10:40:47;;;;;;;7.55;3.60;;;21.90;99.90;;;;;;5013498;28;20378;-70
2021/09/14 10:43:27;;;;;;;7.03;3.90;;;21.90;99.90;;;;;;5014605;28;20030;-70
2021/09/14 10:45:54;;;;;;;6.43;3.58;;;21.90;99.90;;;;;;5013122;28;20046;-70
2021/09/14 10:48:45;;;;;;;9.13;3.22;;;21.90;99.90;;;;;;5050832;27;20388;-72
2021/09/14 10:51:18;;;;;;;7.13;3.75;;;21.90;99.90;;;;;;5042558;28;20039;-71
2021/09/14 10:53:58;;;;;;;6.75;3.30;;;22.00;99.90;;;;;;5029992;28;20564;-71
2021/09/14 10:56:26;;;;;;;6.43;3.20;;;22.10;99.90;;;;;;5041062;28;20029;-72
2021/09/14 10:58:52;;;;;;;9.20;3.75;;;22.20;99.90;;;;;;5043149;28;20044;-71
2021/09/14 11:01:22;;;;;;;7.70;3.60;;;22.20;99.90;;;;;;5040047;28;20033;-71
2021/09/14 11:04:06;;;;;;;8.82;3.50;;;22.20;99.90;;;;;;5043571;28;20052;-72
2021/09/14 11:06:32;;;;;;;4.43;2.67;;;22.10;99.90;;;;;;5038558;28;20045;-71
2021/09/14 11:09:04;;;;;;;7.20;3.35;;;22.10;99.90;;;;;;5041123;28;20373;-71
2021/09/14 11:11:31;;;;;;;7.00;3.60;;;22.20;99.90;;;;;;5039031;28;20037;-71
2021/09/14 11:13:57;;;;;;;5.97;3.30;;;22.40;99.90;;;;;;5041874;28;20026;-71
2021/09/14 11:16:23;;;;;;;8.90;3.35;;;22.50;99.90;;;;;;5042642;28;20033;-71
2021/09/14 11:18:50;;;;;;;7.57;3.20;;;22.40;99.90;;;;;;5045548;28;20512;-71
2021/09/14 11:21:18;;;;;;;12.48;2.80;;;22.50;99.90;;;;;;5037679;28;20070;-72
2021/09/14 11:23:47;;;;;;;8.48;2.80;;;22.50;99.90;;;;;;5041905;28;20488;-71
2021/09/14 11:26:15;;;;;;;4.43;2.53;;;22.40;99.90;;;;;;5038085;28;20037;-72
2021/09/14 11:28:51;;;;;;;5.10;2.60;;;22.40;99.90;;;;;;5045217;28;20029;-71
2021/09/14 11:31:17;;;;;;;10.40;3.00;;;22.40;99.90;;;;;;5037743;28;20543;-72
2021/09/14 11:33:43;;;;;;;4.65;2.50;;;22.50;99.90;;;;;;5041184;28;20037;-72
2021/09/14 11:36:09;;;;;;;7.97;2.97;;;22.50;99.90;;;;;;5044590;28;20809;-71
2021/09/14 11:38:36;;;;;;;5.78;2.55;;;22.50;99.90;;;;;;5044447;28;20040;-71
2021/09/14 11:41:08;;;;;;;5.22;2.63;;;22.50;99.90;;;;;;5040557;28;20032;-73
2021/09/14 11:43:35;;;;;;;3.85;2.20;;;22.40;99.90;;;;;;5043333;28;20807;-71
2021/09/14 11:46:20;;;;;;;5.82;2.58;;;22.50;99.90;;;;;;5038139;28;20389;-72
2021/09/14 11:48:58;;;;;;;6.80;2.90;;;22.50;99.90;;;;;;5042045;28;20064;-71
2021/09/14 11:51:27;;;;;;;6.32;2.78;;;22.50;99.90;;;;;;5041233;28;20030;-71
2021/09/14 11:53:53;;;;;;;3.58;2.20;;;22.40;99.90;;;;;;5042587;28;20033;-71
2021/09/14 11:56:20;;;;;;;6.10;2.33;;;22.40;99.90;;;;;;5039614;28;20029;-71
2021/09/14 11:58:48;;;;;;;4.63;2.47;;;22.30;99.90;;;;;;5030059;28;20729;-72
2021/09/14 12:01:16;;;;;;;4.65;2.28;;;22.30;99.90;;;;;;5028368;28;20041;-71
2021/09/14 12:03:51;;;;;;;5.05;2.47;;;22.30;99.90;;;;;;5025907;28;20512;-72
2021/09/14 12:06:25;;;;;;;7.10;2.67;;;22.20;99.90;;;;;;5026799;28;20037;-72
2021/09/14 12:08:51;;;;;;;5.13;2.53;;;22.30;99.90;;;;;;5024092;28;20041;-71
2021/09/14 12:11:43;;;;;;;7.20;3.05;;;22.40;99.90;;;;;;5027515;28;20107;-71
2021/09/14 12:14:10;;;;;;;7.22;2.65;;;22.40;99.90;;;;;;5021439;28;20098;-71
2021/09/14 12:16:39;;;;;;;7.68;3.03;;;22.40;99.90;;;;;;5030631;28;20037;-71
2021/09/14 12:19:10;;;;;;;7.70;3.50;;;22.40;99.90;;;;;;5026175;28;21215;-73
2021/09/14 12:21:35;;;;;;;;;;;22.40;99.90;;;;;;5027507;28;20037;-72
2021/09/14 12:24:01;;;;;;;7.43;2.92;;;22.40;99.90;;;;;;5022464;28;19913;-71
2021/09/14 12:26:38;;;;;;;5.82;2.95;;;22.30;99.90;;;;;;5030452;28;20064;-71
2021/09/14 12:29:05;;;;;;;9.43;3.35;;;22.30;99.90;;;;;;5025340;28;20061;-71
2021/09/14 12:31:31;;;;;;;4.45;2.42;;;22.30;99.90;;;;;;5028691;28;20029;-71
2021/09/14 12:33:56;;;;;;;8.80;3.42;;;22.30;99.90;;;;;;5027061;28;20450;-71
2021/09/14 12:36:22;;;;;;;5.20;2.65;;;22.40;99.90;;;;;;5023906;28;20041;-71
2021/09/14 12:38:48;;;;;;;7.65;2.90;;;22.40;99.90;;;;;;5025434;28;20124;-72
2021/09/14 12:41:16;;;;;;;11.55;3.35;;;22.40;99.90;;;;;;5028576;28;20030;-71
2021/09/14 12:43:46;;;;;;;7.13;3.30;;;22.40;99.90;;;;;;5029423;28;20038;-71
2021/09/14 12:46:12;;;;;;;;;;;22.40;99.90;;;;;;5028161;28;20037;-72
2021/09/14 12:48:38;;;;;;;5.88;3.45;;;22.40;99.90;;;;;;5027218;28;19917;-71
2021/09/14 12:51:05;;;;;;;6.95;3.53;;;22.60;99.90;;;;;;5024022;28;20030;-71
2021/09/14 12:53:31;;;;;;;6.07;3.30;;;22.50;99.90;;;;;;5025674;28;20038;-71
2021/09/14 12:55:57;;;;;;;9.13;3.33;;;22.60;99.90;;;;;;5024931;28;20403;-72
2021/09/14 12:58:23;;;;;;;6.45;3.05;;;22.60;99.90;;;;;;5030691;28;20103;-71
2021/09/14 13:00:49;;;;;;;5.13;3.10;;;22.60;99.90;;;;;;5025340;28;20064;-71
2021/09/14 13:03:15;;;;;;;7.28;3.20;;;22.70;99.90;;;;;;5024419;28;20037;-71
2021/09/14 13:05:42;;;;;;;11.38;3.85;;;22.80;99.90;;;;;;5023375;28;20049;-71
2021/09/14 13:08:08;;;;;;;8.55;3.83;;;22.80;99.90;;;;;;5027511;28;20720;-71
2021/09/14 13:10:34;;;;;;;6.97;3.70;;;22.80;99.90;;;;;;5024055;28;20121;-71
2021/09/14 13:18:29;;;;;;;8.35;4.13;;;22.70;99.90;;;;;;5023588;28;20459;-72
2021/09/14 13:20:55;;;;;;;7.55;4.03;;;22.60;99.90;;;;;;5025572;28;20025;-72
2021/09/14 13:23:20;;;;;;;13.25;4.43;;;22.50;99.90;;;;;;5026408;28;20037;-72
2021/09/14 13:25:46;;;;;;;8.13;4.07;;;22.50;99.90;;;;;;5023535;28;20045;-71
2021/09/14 13:28:12;;;;;;;6.43;3.78;;;22.60;99.90;;;;;;5029757;28;20041;-72
2021/09/14 13:30:37;;;;;;;6.57;3.72;;;22.60;99.90;;;;;;5022774;28;20564;-71
2021/09/14 13:33:03;;;;;;;10.77;4.47;;;22.60;99.90;;;;;;5024118;28;20140;-72
2021/09/14 13:35:29;;;;;;;8.60;4.72;;;22.70;99.90;;;;;;5025159;28;20823;-72
2021/09/14 13:37:55;;;;;;;8.90;4.97;;;22.60;99.90;;;;;;5024718;28;20120;-72
2021/09/14 13:40:21;;;;;;;8.27;4.32;;;22.70;99.90;;;;;;5026992;28;20064;-71
2021/09/14 13:42:54;;;;;;;6.97;4.55;;;22.70;99.90;;;;;;5026036;28;20421;-72
2021/09/14 13:48:05;;;;;;;9.73;4.30;;;22.60;99.90;;;;;;5022454;28;20040;-71